createdAt,value
2019-03-19T00:01:39.546Z,2.30
2019-03-19T00:04:10.315Z,2.20
2019-03-19T00:06:41.964Z,2.17
2019-03-19T00:09:12.328Z,1.90
2019-03-19T00:11:42.617Z,1.57
2019-03-19T00:14:13.252Z,2.23
2019-03-19T00:16:43.661Z,1.47
2019-03-19T00:19:14.038Z,1.97
2019-03-19T00:21:44.470Z,2.13
2019-03-19T00:24:14.827Z,1.73
2019-03-19T00:26:45.137Z,1.73
2019-03-19T00:29:15.512Z,2.00
2019-03-19T00:31:45.823Z,2.00
2019-03-19T00:34:16.253Z,2.00
2019-03-19T00:36:47.845Z,2.13
2019-03-19T00:39:19.410Z,2.47
2019-03-19T00:41:52.606Z,2.40
2019-03-19T00:44:23.804Z,2.20
2019-03-19T00:46:54.848Z,2.33
2019-03-19T00:49:25.907Z,2.10
2019-03-19T00:51:57.097Z,2.20
2019-03-19T00:54:28.335Z,2.40
2019-03-19T00:56:59.619Z,2.13
2019-03-19T00:59:30.473Z,2.10
2019-03-19T01:02:03.906Z,2.53
2019-03-19T01:04:34.950Z,2.53
2019-03-19T01:07:05.695Z,2.50
2019-03-19T01:09:37.236Z,3.53
2019-03-19T01:12:08.983Z,2.53
2019-03-19T01:14:39.310Z,3.23
2019-03-19T01:17:09.729Z,2.50
2019-03-19T01:19:40.060Z,3.00
2019-03-19T01:22:10.385Z,2.73
2019-03-19T01:24:40.830Z,2.93
2019-03-19T01:27:11.146Z,2.40
2019-03-19T01:29:41.517Z,2.20
2019-03-19T01:32:11.837Z,2.50
2019-03-19T01:34:42.141Z,2.30
2019-03-19T01:37:12.493Z,2.03
2019-03-19T01:39:42.827Z,2.20
2019-03-19T01:42:13.160Z,2.77
2019-03-19T01:44:43.588Z,2.77
2019-03-19T01:47:15.077Z,2.70
2019-03-19T01:49:45.497Z,2.40
2019-03-19T01:52:15.891Z,2.53
2019-03-19T01:54:46.273Z,2.40
2019-03-19T01:57:16.565Z,2.13
2019-03-19T01:59:47.005Z,3.10
2019-03-19T02:02:17.342Z,1.87
2019-03-19T02:04:47.725Z,2.60
2019-03-19T02:07:18.038Z,2.90
2019-03-19T02:09:48.427Z,2.10
2019-03-19T02:12:18.759Z,2.63
2019-03-19T02:14:49.090Z,2.60
2019-03-19T02:17:19.427Z,2.53
2019-03-19T02:19:49.753Z,2.43
2019-03-19T02:22:20.050Z,2.80
2019-03-19T02:24:50.678Z,2.67
2019-03-19T02:27:21.078Z,2.80
2019-03-19T02:29:51.446Z,2.53
2019-03-19T02:32:21.754Z,2.20
2019-03-19T02:34:52.094Z,3.17
2019-03-19T02:37:22.450Z,2.60
2019-03-19T02:39:52.790Z,2.90
2019-03-19T02:42:23.130Z,2.70
2019-03-19T02:44:54.640Z,2.63
2019-03-19T02:47:24.946Z,2.87
2019-03-19T02:49:55.310Z,2.77
2019-03-19T02:52:25.609Z,2.70
2019-03-19T02:54:55.975Z,2.93
2019-03-19T02:57:26.500Z,2.90
2019-03-19T02:59:56.819Z,2.90
2019-03-19T03:02:27.156Z,2.87
2019-03-19T03:04:59.277Z,3.13
2019-03-19T03:07:29.565Z,3.43
2019-03-19T03:09:59.872Z,2.83
2019-03-19T03:12:30.170Z,2.93
2019-03-19T03:15:00.589Z,2.87
2019-03-19T03:17:31.120Z,3.47
2019-03-19T03:20:01.500Z,2.77
2019-03-19T03:22:32.314Z,3.43
2019-03-19T03:25:02.639Z,4.10
2019-03-19T03:27:33.945Z,3.37
2019-03-19T03:30:04.653Z,3.17
2019-03-19T03:32:34.953Z,3.20
2019-03-19T03:35:05.686Z,3.23
2019-03-19T03:37:36.049Z,3.57
2019-03-19T03:40:07.875Z,3.13
2019-03-19T03:42:38.522Z,3.80
2019-03-19T03:45:09.466Z,3.37
2019-03-19T03:47:39.983Z,3.47
2019-03-19T03:50:10.610Z,3.67
2019-03-19T03:52:40.958Z,3.07
2019-03-19T03:55:11.394Z,3.60
2019-03-19T03:57:43.226Z,3.20
2019-03-19T04:00:14.153Z,3.20
2019-03-19T04:02:44.967Z,3.53
2019-03-19T04:05:15.717Z,3.87
2019-03-19T04:07:46.019Z,3.47
2019-03-19T04:10:16.546Z,3.60
2019-03-19T04:12:46.996Z,3.73
2019-03-19T04:15:17.526Z,3.50
2019-03-19T04:17:48.009Z,3.67
2019-03-19T04:20:18.643Z,3.83
2019-03-19T04:22:48.945Z,3.70
2019-03-19T04:25:19.370Z,3.40
2019-03-19T04:27:49.690Z,4.40
2019-03-19T04:30:20.224Z,6.67
2019-03-19T04:32:50.634Z,3.73
2019-03-19T04:35:21.088Z,3.70
2019-03-19T04:37:51.385Z,3.57
2019-03-19T04:40:21.720Z,3.80
2019-03-19T04:42:52.069Z,4.00
2019-03-19T04:45:22.458Z,3.53
2019-03-19T04:47:52.840Z,3.50
2019-03-19T04:50:23.160Z,3.93
2019-03-19T04:52:53.529Z,3.63
2019-03-19T04:55:23.842Z,4.23
2019-03-19T04:57:54.163Z,3.80
2019-03-19T05:00:24.475Z,3.90
2019-03-19T05:02:54.886Z,4.80
2019-03-19T05:05:27.222Z,4.00
2019-03-19T05:07:58.326Z,3.90
2019-03-19T05:10:28.607Z,4.03
2019-03-19T05:13:00.753Z,4.30
2019-03-19T05:15:31.448Z,4.07
2019-03-19T05:18:01.729Z,3.60
2019-03-19T05:20:32.033Z,3.93
2019-03-19T05:23:02.570Z,3.90
2019-03-19T05:25:32.993Z,4.50
2019-03-19T05:28:03.344Z,3.93
2019-03-19T05:30:33.607Z,3.83
2019-03-19T05:33:04.052Z,3.77
2019-03-19T05:35:34.388Z,3.20
2019-03-19T05:38:04.718Z,4.27
2019-03-19T05:40:35.094Z,3.67
2019-03-19T05:43:05.489Z,4.43
2019-03-19T05:45:35.812Z,4.23
2019-03-19T05:48:06.172Z,3.60
2019-03-19T05:50:36.457Z,3.60
2019-03-19T05:53:06.869Z,3.70
2019-03-19T05:55:37.344Z,3.70
2019-03-19T05:58:07.634Z,3.60
2019-03-19T06:00:38.526Z,3.90
2019-03-19T06:03:08.910Z,3.50
2019-03-19T06:05:39.221Z,4.00
2019-03-19T06:08:09.554Z,3.63
2019-03-19T06:10:40.454Z,3.97
2019-03-19T06:13:10.802Z,3.90
2019-03-19T06:15:41.155Z,3.83
2019-03-19T06:18:11.525Z,3.40
2019-03-19T06:20:41.822Z,3.23
2019-03-19T06:23:12.129Z,3.00
2019-03-19T06:25:42.547Z,3.77
2019-03-19T06:28:12.809Z,4.10
2019-03-19T06:30:43.122Z,3.00
2019-03-19T06:33:13.573Z,3.30
2019-03-19T06:35:43.989Z,3.90
2019-03-19T06:38:14.298Z,3.20
2019-03-19T06:40:44.735Z,3.00
2019-03-19T06:43:15.129Z,3.00
2019-03-19T06:45:45.429Z,2.83
2019-03-19T06:48:15.790Z,3.40
2019-03-19T06:50:47.378Z,2.93
2019-03-19T06:53:17.802Z,3.00
2019-03-19T06:55:48.140Z,3.10
2019-03-19T06:58:18.594Z,3.83
2019-03-19T07:00:48.919Z,3.37
2019-03-19T07:03:19.249Z,3.07
2019-03-19T07:05:49.550Z,3.53
2019-03-19T07:08:19.922Z,3.40
2019-03-19T07:10:52.669Z,2.80
2019-03-19T07:13:22.159Z,3.00
2019-03-19T07:15:52.462Z,3.40
2019-03-19T07:18:22.861Z,4.40
2019-03-19T07:20:53.154Z,4.00
2019-03-19T07:23:23.536Z,3.87
2019-03-19T07:25:54.166Z,4.30
2019-03-19T07:28:24.672Z,6.27
2019-03-19T07:30:54.993Z,4.17
2019-03-19T07:33:25.309Z,3.27
2019-03-19T07:35:55.597Z,3.60
2019-03-19T07:38:27.004Z,4.27
2019-03-19T07:40:57.319Z,3.30
2019-03-19T07:43:27.657Z,4.67
2019-03-19T07:45:58.006Z,3.93
2019-03-19T07:48:28.347Z,3.77
2019-03-19T07:50:58.648Z,3.93
2019-03-19T07:53:29.021Z,3.77
2019-03-19T07:55:59.449Z,3.80
2019-03-19T07:58:40.552Z,3.33
2019-03-19T08:01:01.810Z,2.97
2019-03-19T08:03:32.120Z,3.53
2019-03-19T08:06:02.618Z,3.57
2019-03-19T08:08:33.035Z,3.07
2019-03-19T08:11:03.366Z,2.97
2019-03-19T08:13:33.689Z,3.60
2019-03-19T08:16:04.017Z,3.10
2019-03-19T08:18:36.183Z,3.40
2019-03-19T08:21:06.418Z,2.57
2019-03-19T08:23:36.818Z,3.00
2019-03-19T08:26:07.586Z,3.07
2019-03-19T08:28:38.062Z,2.50
2019-03-19T08:31:08.472Z,3.40
2019-03-19T08:33:38.923Z,2.70
2019-03-19T08:36:09.775Z,2.80
2019-03-19T08:38:40.401Z,2.83
2019-03-19T08:41:10.770Z,2.77
2019-03-19T08:43:41.370Z,2.40
2019-03-19T08:46:11.629Z,2.60
2019-03-19T08:48:42.087Z,2.30
2019-03-19T08:51:12.401Z,2.40
2019-03-19T08:53:42.817Z,1.97
2019-03-19T08:56:13.174Z,1.97
2019-03-19T08:58:43.522Z,1.80
2019-03-19T09:01:13.818Z,2.13
2019-03-19T09:03:44.141Z,2.07
2019-03-19T09:06:14.437Z,1.73
2019-03-19T09:08:44.782Z,1.97
2019-03-19T09:11:15.134Z,1.73
2019-03-19T09:13:45.453Z,1.90
2019-03-19T09:16:15.761Z,1.70
2019-03-19T09:18:46.059Z,1.83
2019-03-19T09:21:16.367Z,1.60
2019-03-19T09:23:48.600Z,1.77
2019-03-19T09:26:20.696Z,1.73
2019-03-19T09:28:52.567Z,1.63
2019-03-19T09:31:22.982Z,1.33
2019-03-19T09:33:54.344Z,1.33
2019-03-19T09:36:27.037Z,1.60
2019-03-19T09:43:15.056Z,1.20
2019-03-19T09:45:45.367Z,1.20
2019-03-19T09:48:15.797Z,1.83
2019-03-19T09:50:46.263Z,1.43
2019-03-19T09:53:18.650Z,2.63
2019-03-19T09:55:49.726Z,1.57
2019-03-19T09:58:20.174Z,1.23
2019-03-19T10:00:50.635Z,1.60
2019-03-19T10:03:22.632Z,1.40
2019-03-19T10:05:56.412Z,1.60
2019-03-19T10:08:26.834Z,1.93
2019-03-19T10:10:57.193Z,1.87
2019-03-19T10:13:27.631Z,2.03
2019-03-19T10:15:58.226Z,1.73
2019-03-19T10:18:28.629Z,1.80
2019-03-19T10:20:59.053Z,2.30
2019-03-19T10:23:30.596Z,1.10
2019-03-19T10:26:00.921Z,1.43
2019-03-19T10:28:31.257Z,1.90
2019-03-19T10:31:01.638Z,1.53
2019-03-19T10:33:31.970Z,1.63
2019-03-19T10:36:02.265Z,2.13
2019-03-19T10:38:32.661Z,1.60
2019-03-19T10:41:04.181Z,1.97
2019-03-19T10:43:34.483Z,1.90
2019-03-19T10:46:04.855Z,1.67
2019-03-19T10:48:35.189Z,1.37
2019-03-19T10:51:05.669Z,1.57
2019-03-19T10:53:36.161Z,1.70
2019-03-19T10:56:07.257Z,1.80
2019-03-19T10:58:39.973Z,1.53
2019-03-19T11:01:10.334Z,2.10
2019-03-19T11:03:41.152Z,1.93
2019-03-19T11:06:11.542Z,2.13
2019-03-19T11:08:41.938Z,1.90
2019-03-19T11:11:12.243Z,1.43
2019-03-19T11:13:42.553Z,1.50
2019-03-19T11:16:13.081Z,1.67
2019-03-19T11:18:43.414Z,1.63
2019-03-19T11:21:13.755Z,1.40
2019-03-19T11:23:44.118Z,1.30
2019-03-19T11:26:16.126Z,1.20
2019-03-19T11:28:47.211Z,1.70
2019-03-19T11:31:17.573Z,0.93
2019-03-19T11:33:47.955Z,1.67
2019-03-19T11:36:18.325Z,2.10
2019-03-19T11:38:48.637Z,1.40
2019-03-19T11:41:19.222Z,1.50
2019-03-19T11:43:49.763Z,2.13
2019-03-19T11:46:20.072Z,1.37
2019-03-19T11:48:50.453Z,1.27
2019-03-19T11:51:20.773Z,1.80
2019-03-19T11:53:51.153Z,1.83
2019-03-19T11:56:21.471Z,1.60
2019-03-19T11:58:51.804Z,1.37
2019-03-19T12:01:23.323Z,1.27
2019-03-19T12:03:53.722Z,1.50
2019-03-19T12:06:24.102Z,1.30
2019-03-19T12:08:54.424Z,1.57
2019-03-19T12:11:24.730Z,1.43
2019-03-19T12:13:54.657Z,1.20
2019-03-19T12:16:25.075Z,1.50
2019-03-19T12:18:55.453Z,1.67
2019-03-19T12:21:25.854Z,1.77
2019-03-19T12:23:57.258Z,1.60
2019-03-19T12:26:27.535Z,1.17
2019-03-19T12:28:57.905Z,1.60
2019-03-19T12:31:28.281Z,1.70
2019-03-19T12:33:58.586Z,1.57
2019-03-19T12:36:28.901Z,1.40
2019-03-19T12:38:59.248Z,1.60
2019-03-19T12:41:29.683Z,2.00
2019-03-19T12:43:59.995Z,1.27
2019-03-19T12:46:30.313Z,1.47
2019-03-19T12:49:00.705Z,1.83
2019-03-19T12:51:31.060Z,1.87
2019-03-19T12:54:01.390Z,1.27
2019-03-19T12:56:31.701Z,1.43
2019-03-19T12:59:02.079Z,1.43
2019-03-19T13:01:32.475Z,1.40
2019-03-19T13:04:02.907Z,1.87
2019-03-19T13:06:33.402Z,1.13
2019-03-19T13:09:06.520Z,1.13
2019-03-19T13:11:38.535Z,1.37
2019-03-19T13:14:09.155Z,1.53
2019-03-19T13:16:39.851Z,1.40
2019-03-19T13:19:10.470Z,1.93
2019-03-19T13:21:40.901Z,1.87
2019-03-19T13:24:11.477Z,1.50
2019-03-19T13:26:41.975Z,1.47
2019-03-19T13:29:12.426Z,1.47
2019-03-19T13:31:42.805Z,1.70
2019-03-19T13:34:13.125Z,1.80
2019-03-19T13:36:43.516Z,1.50
2019-03-19T13:39:13.839Z,1.73
2019-03-19T13:41:44.216Z,1.80
2019-03-19T13:44:15.555Z,1.27
2019-03-19T13:46:45.872Z,1.70
2019-03-19T13:49:16.185Z,1.33
2019-03-19T13:51:47.525Z,1.27
2019-03-19T13:54:17.835Z,1.73
2019-03-19T13:56:48.214Z,1.57
2019-03-19T13:59:18.597Z,1.70
2019-03-19T14:01:49.146Z,1.97
2019-03-19T14:04:21.114Z,1.60
2019-03-19T14:06:52.174Z,1.50
2019-03-19T14:09:22.754Z,1.47
2019-03-19T14:11:53.213Z,1.60
2019-03-19T14:14:23.560Z,1.40
2019-03-19T14:16:53.929Z,1.57
2019-03-19T14:19:24.387Z,1.40
2019-03-19T14:21:57.210Z,1.80
2019-03-19T14:24:29.158Z,1.53
2019-03-19T14:27:00.814Z,1.93
2019-03-19T14:29:32.530Z,2.60
2019-03-19T14:32:04.020Z,2.00
2019-03-19T14:34:35.806Z,2.20
2019-03-19T14:37:06.199Z,2.30
2019-03-19T14:39:36.525Z,1.83
2019-03-19T14:42:06.970Z,1.83
2019-03-19T14:44:40.430Z,1.67
2019-03-19T14:47:10.755Z,1.30
2019-03-19T14:49:46.554Z,1.80
2019-03-19T14:52:12.985Z,1.83
2019-03-19T14:54:43.331Z,2.13
2019-03-19T14:57:13.781Z,1.80
2019-03-19T14:59:44.175Z,1.23
2019-03-19T15:02:14.731Z,1.50
2019-03-19T15:04:45.061Z,1.40
2019-03-19T15:07:15.405Z,1.70
2019-03-19T15:09:48.686Z,1.53
2019-03-19T15:12:19.041Z,1.83
2019-03-19T15:14:49.475Z,2.23
2019-03-19T15:17:21.168Z,1.67
2019-03-19T15:19:51.520Z,2.23
2019-03-19T15:22:31.881Z,1.83
2019-03-19T15:24:53.906Z,1.60
2019-03-19T15:27:24.319Z,1.87
2019-03-19T15:29:57.518Z,2.07
2019-03-19T15:32:27.912Z,2.30
2019-03-19T15:34:58.257Z,1.60
2019-03-19T15:37:28.629Z,2.10
2019-03-19T15:39:58.908Z,1.90
2019-03-19T15:42:29.346Z,1.80
2019-03-19T15:44:59.865Z,2.23
2019-03-19T15:47:30.205Z,1.73
2019-03-19T15:50:00.550Z,1.70
2019-03-19T15:52:30.910Z,2.00
2019-03-19T15:55:01.259Z,2.33
2019-03-19T15:57:31.674Z,2.40
2019-03-19T16:00:02.077Z,2.20
2019-03-19T16:02:32.537Z,2.00
2019-03-19T16:05:02.861Z,2.10
2019-03-19T16:07:33.270Z,2.40
2019-03-19T16:10:03.612Z,2.37
2019-03-19T16:12:33.991Z,2.10
2019-03-19T16:15:04.531Z,2.67
2019-03-19T16:17:34.853Z,2.40
2019-03-19T16:20:06.033Z,2.40
2019-03-19T16:22:37.499Z,2.10
2019-03-19T16:25:10.493Z,2.57
2019-03-19T16:27:41.148Z,2.53
2019-03-19T16:30:12.730Z,2.23
2019-03-19T16:32:43.256Z,2.63
2019-03-19T16:35:13.891Z,2.67
2019-03-19T16:37:44.241Z,2.90
2019-03-19T16:40:17.090Z,2.13
2019-03-19T16:42:48.198Z,2.30
2019-03-19T16:45:18.800Z,2.67
2019-03-19T16:47:49.189Z,2.50
2019-03-19T16:50:19.515Z,2.53
2019-03-19T16:52:50.829Z,2.87
2019-03-19T16:55:21.348Z,2.53
2019-03-19T16:57:52.643Z,2.30
2019-03-19T17:00:23.391Z,2.70
2019-03-19T17:02:54.345Z,2.93
2019-03-19T17:05:24.629Z,2.57
2019-03-19T17:07:55.445Z,2.87
2019-03-19T17:10:25.826Z,2.30
2019-03-19T17:12:57.973Z,3.30
2019-03-19T17:15:30.583Z,2.60
2019-03-19T17:18:02.016Z,2.60
2019-03-19T17:20:32.309Z,2.57
2019-03-19T17:23:02.673Z,2.17
2019-03-19T17:25:32.970Z,2.73
2019-03-19T17:28:05.385Z,2.60
2019-03-19T17:30:40.803Z,2.73
2019-03-19T17:33:15.052Z,2.50
2019-03-19T17:35:46.890Z,2.60
2019-03-19T17:38:19.494Z,2.63
2019-03-19T17:40:49.745Z,2.60
2019-03-19T17:43:20.162Z,2.70
2019-03-19T17:45:50.698Z,2.47
2019-03-19T17:48:21.069Z,2.50
2019-03-19T17:50:52.203Z,2.73
2019-03-19T17:53:22.565Z,2.90
2019-03-19T17:55:52.932Z,2.70
2019-03-19T17:58:23.333Z,3.10
2019-03-19T18:00:54.119Z,2.97
2019-03-19T18:03:24.545Z,2.70
2019-03-19T18:05:55.052Z,2.50
2019-03-19T18:08:25.396Z,3.03
2019-03-19T18:10:55.692Z,2.60
2019-03-19T18:13:26.071Z,2.70
2019-03-19T18:15:56.405Z,3.23
2019-03-19T18:18:26.808Z,2.77
2019-03-19T18:20:57.110Z,2.83
2019-03-19T18:23:29.397Z,2.90
2019-03-19T18:25:59.502Z,3.10
2019-03-19T18:28:29.946Z,3.17
2019-03-19T18:31:00.530Z,2.87
2019-03-19T18:33:30.878Z,2.80
2019-03-19T18:36:01.183Z,3.03
2019-03-19T18:38:31.572Z,3.03
2019-03-19T18:41:02.030Z,6.73
2019-03-19T18:43:32.382Z,3.83
2019-03-19T18:46:02.717Z,3.47
2019-03-19T18:48:33.419Z,3.30
2019-03-19T18:51:03.880Z,3.00
2019-03-19T18:53:34.253Z,3.20
2019-03-19T18:56:04.565Z,2.57
2019-03-19T18:58:35.048Z,3.13
2019-03-19T19:01:05.358Z,2.70
2019-03-19T19:03:35.777Z,2.80
2019-03-19T19:06:06.110Z,2.67
2019-03-19T19:08:36.641Z,3.30
2019-03-19T19:11:08.650Z,3.30
2019-03-19T19:13:41.674Z,4.00
2019-03-19T19:16:12.561Z,3.93
2019-03-19T19:18:44.470Z,6.90
2019-03-19T19:21:14.477Z,7.40
2019-03-19T19:23:46.206Z,5.30
2019-03-19T19:26:16.616Z,4.40
2019-03-19T19:28:47.063Z,4.10
2019-03-19T19:31:17.431Z,4.10
2019-03-19T19:33:47.780Z,3.27
2019-03-19T19:36:19.615Z,3.40
2019-03-19T19:38:51.419Z,3.20
2019-03-19T19:41:23.310Z,2.90
2019-03-19T19:43:55.658Z,2.60
2019-03-19T19:46:28.129Z,3.50
2019-03-19T19:49:04.081Z,3.47
2019-03-19T19:51:34.329Z,3.47
2019-03-19T19:54:05.940Z,3.40
2019-03-19T19:56:38.018Z,3.20
2019-03-19T19:59:10.971Z,3.10
2019-03-19T20:01:44.485Z,3.20
2019-03-19T20:04:23.609Z,3.40
2019-03-19T20:06:56.236Z,3.70
2019-03-19T20:09:27.952Z,3.87
2019-03-19T20:11:58.311Z,4.67
2019-03-19T20:14:30.198Z,3.47
2019-03-19T20:17:01.761Z,3.47
2019-03-19T20:19:35.422Z,3.10
2019-03-19T20:22:07.232Z,3.20
2019-03-19T20:24:38.624Z,2.60
2019-03-19T20:27:11.545Z,3.00
2019-03-19T20:29:42.514Z,3.20
2019-03-19T20:32:18.315Z,5.57
2019-03-19T20:34:52.372Z,5.27
2019-03-19T20:37:24.370Z,3.70
2019-03-19T20:39:56.020Z,3.50
2019-03-19T20:42:27.684Z,3.40
2019-03-19T20:45:00.335Z,2.97
2019-03-19T20:47:31.011Z,3.17
2019-03-19T20:50:01.380Z,3.40
2019-03-19T20:52:31.694Z,4.20
2019-03-19T20:55:02.061Z,3.57
2019-03-19T20:57:32.485Z,4.13
2019-03-19T21:00:02.875Z,4.97
2019-03-19T21:02:34.585Z,4.57
2019-03-19T21:05:05.129Z,4.13
2019-03-19T21:07:37.410Z,4.20
2019-03-19T21:10:10.559Z,4.00
2019-03-19T21:12:42.414Z,4.70
2019-03-19T21:15:24.695Z,4.80
2019-03-19T21:17:56.299Z,4.60
2019-03-19T21:20:28.045Z,4.07
2019-03-19T21:23:00.358Z,4.63
2019-03-19T21:25:32.238Z,4.73
2019-03-19T21:28:13.482Z,4.53
2019-03-19T21:30:38.312Z,5.20
2019-03-19T21:33:11.324Z,5.20
2019-03-19T21:35:44.135Z,5.10
2019-03-19T21:38:18.655Z,5.10
2019-03-19T21:40:50.122Z,6.33
2019-03-19T21:43:21.654Z,5.53
2019-03-19T21:45:53.833Z,5.53
2019-03-19T21:48:25.146Z,5.53
2019-03-19T21:50:57.773Z,4.80
2019-03-19T21:53:31.786Z,5.00
2019-03-19T21:56:03.683Z,4.60
2019-03-19T21:58:35.935Z,4.73
2019-03-19T22:01:07.682Z,4.87
2019-03-19T22:03:39.673Z,4.70
2019-03-19T22:06:11.341Z,4.50
2019-03-19T22:08:45.645Z,5.83
2019-03-19T22:11:18.446Z,4.60
2019-03-19T22:13:50.156Z,5.00
2019-03-19T22:16:22.007Z,4.93
2019-03-19T22:18:53.410Z,5.20
2019-03-19T22:21:25.801Z,5.30
2019-03-19T22:23:57.875Z,5.17
2019-03-19T22:26:33.224Z,5.20
2019-03-19T22:29:05.689Z,4.73
2019-03-19T22:31:37.263Z,4.80
2019-03-19T22:34:14.099Z,5.30
2019-03-19T22:36:40.537Z,3.70
2019-03-19T22:39:11.892Z,4.30
2019-03-19T22:41:42.755Z,4.20
2019-03-19T22:44:13.771Z,4.40
2019-03-19T22:46:44.166Z,4.30
2019-03-19T22:49:14.525Z,4.00
2019-03-19T22:51:44.850Z,3.77
2019-03-19T22:54:15.337Z,3.50
2019-03-19T22:56:45.664Z,4.33
2019-03-19T22:59:17.072Z,4.17
2019-03-19T23:01:47.481Z,3.70
2019-03-19T23:04:26.876Z,4.43
2019-03-19T23:06:49.838Z,4.17
2019-03-19T23:09:20.431Z,4.57
2019-03-19T23:11:50.642Z,5.00
2019-03-19T23:14:21.305Z,4.20
2019-03-19T23:16:52.251Z,4.63
2019-03-19T23:19:22.635Z,4.20
2019-03-19T23:21:53.113Z,4.13
2019-03-19T23:24:23.838Z,4.20
2019-03-19T23:26:54.329Z,4.10
2019-03-19T23:29:24.627Z,4.30
2019-03-19T23:31:55.015Z,3.43
2019-03-19T23:34:25.362Z,3.57
2019-03-19T23:36:55.802Z,3.40
2019-03-19T23:39:26.135Z,3.87
2019-03-19T23:41:56.460Z,4.00
2019-03-19T23:44:27.419Z,3.90
2019-03-19T23:46:57.802Z,4.20
2019-03-19T23:49:28.107Z,3.80
2019-03-19T23:51:59.108Z,3.80
2019-03-19T23:54:29.419Z,3.37
2019-03-19T23:57:02.934Z,3.50
2019-03-19T23:59:33.794Z,3.67
